Reno Tahoe International Airport
KRNO : now visible

Airfield :











YOU CAN JOIN US ON...

 
LOGIN :

Register | Disclaimer

   EN    FR    IT 

 









Legend :    VFR   Marginal VFR   IFR   Intensive IFR   Very Intensive IFR
Visi :
Ceiling :
>= 8 km
>= 3000ft
5 to 8 km
1000 to 3000 ft
1500m to 5 km
500 to 1000 ft
800 to 1500m
200 to 500 ft
< 800m
< 200 ft
Symbols :   Thunderstorms  Fog  Heavy snow  Heavy precipitations  Wind > 20 kt






- Airport Elevation : 4415 ft
- IATA code : RNO


KRNO - Reno Tahoe International

CURRENT METAR :
  • 181855Z VRB05KT 10SM SCT250 21/M03 A2995 RMK AO2 SLP102 T02061028

EXPIRED METARs :
  • 181755Z 16008G15KT 10SM SCT250 20/M04 A2995 RMK AO2 SLP101 T02001039 10200 20072 58009
  • 181655Z VRB03KT 10SM FEW250 18/M05 A2997 RMK AO2 SLP107 T01831050
  • 181555Z 00000KT 10SM CLR 15/M05 A2997 RMK AO2 SLP111 T01501050
  • 181455Z 00000KT 10SM CLR 12/M07 A2998 RMK AO2 SLP116 T01221067 50001

TAF KRNO
Valid from the 18 at 18:00 until the 19 at 18:00 UTC


181720Z 1818/1918 10006KT P6SM FEW220
FM182300 30011KT P6SM SCT220
FM190500 VRB03KT P6SM SCT220
KZOA FIR / North America



MET'MAP, your aeronautical weather chart ! - Copyright ORBIFLY December 2007 - Disclaimer

ORBIFLY MET'MAP TEAM :

Programming & Development : Alexandra Zaïnal
Original concept : Baudouin d'Aumeries
Technical & hardware support : Manuel Goepfert
Assistance : Marc-Olivier Méhu




SOURCES & CREDITS :

   NOAA       Earth
Advisory